createdAt,value
2018-08-18T00:00:27.332Z,95888.66
2018-08-18T00:02:56.509Z,95899.63
2018-08-18T00:05:25.615Z,95910.36
2018-08-18T00:07:54.771Z,95909.66
2018-08-18T00:10:24.179Z,95912.47
2018-08-18T00:12:53.289Z,95912.22
2018-08-18T00:15:22.381Z,95914.88
2018-08-18T00:17:51.483Z,95924.45
2018-08-18T00:20:23.645Z,95916.51
2018-08-18T00:22:52.769Z,95919.67
2018-08-18T00:25:21.858Z,95914.88
2018-08-18T00:27:51.001Z,95913.13
2018-08-18T00:30:25.497Z,95915.84
2018-08-18T00:32:54.850Z,95912.92
2018-08-18T00:35:24.292Z,95915.39
2018-08-18T00:37:53.464Z,95914.41
2018-08-18T00:40:22.527Z,95905.05
2018-08-18T00:42:51.624Z,95906.53
2018-08-18T00:45:20.738Z,95914.98
2018-08-18T00:47:50.976Z,95907.69
2018-08-18T00:50:35.480Z,95910.33
2018-08-18T00:53:05.975Z,95912.55
2018-08-18T00:55:35.584Z,95915.03
2018-08-18T00:58:05.384Z,95913.91
2018-08-18T01:00:34.697Z,95923.97
2018-08-18T01:03:03.840Z,95920.33
2018-08-18T01:05:32.935Z,95911.05
2018-08-18T01:08:02.143Z,95919.89
2018-08-18T01:10:31.231Z,95917.05
2018-08-18T01:13:00.489Z,95923.76
2018-08-18T01:15:29.688Z,95919.99
2018-08-18T01:17:58.841Z,95927.56
2018-08-18T01:20:27.959Z,95927.54
2018-08-18T01:22:59.833Z,95934.20
2018-08-18T01:25:29.012Z,95937.29
2018-08-18T01:27:58.709Z,95937.73
2018-08-18T01:30:27.808Z,95937.20
2018-08-18T01:32:56.950Z,95926.02
2018-08-18T01:35:26.067Z,95933.57
2018-08-18T01:37:55.283Z,95942.91
2018-08-18T01:40:24.451Z,95941.28
2018-08-18T01:42:53.581Z,95934.47
2018-08-18T01:45:22.657Z,95931.44
2018-08-18T01:47:51.829Z,95934.84
2018-08-18T01:50:20.903Z,95934.95
2018-08-18T01:52:49.989Z,95936.31
2018-08-18T01:55:19.071Z,95936.45
2018-08-18T01:57:48.160Z,95940.84
2018-08-18T02:00:23.112Z,95940.38
2018-08-18T02:02:52.179Z,95941.30
2018-08-18T02:05:21.373Z,95934.84
2018-08-18T02:07:50.578Z,95947.45
2018-08-18T02:10:19.776Z,95939.45
2018-08-18T02:13:02.231Z,95944.69
2018-08-18T02:15:32.308Z,95945.47
2018-08-18T02:18:01.421Z,95956.08
2018-08-18T02:20:30.584Z,95953.87
2018-08-18T02:22:59.715Z,95951.53
2018-08-18T02:25:28.776Z,95956.75
2018-08-18T02:27:57.886Z,95957.48
2018-08-18T02:30:26.962Z,95953.76
2018-08-18T02:32:56.172Z,95954.47
2018-08-18T02:35:25.286Z,95948.34
2018-08-18T02:37:54.451Z,95954.98
2018-08-18T02:40:23.645Z,95959.41
2018-08-18T02:42:52.935Z,95962.08
2018-08-18T02:45:22.257Z,95961.62
2018-08-18T02:48:05.525Z,95959.17
2018-08-18T02:50:34.637Z,95963.53
2018-08-18T02:53:40.172Z,95965.62
2018-08-18T02:56:09.635Z,95963.31
2018-08-18T02:58:38.852Z,95960.52
2018-08-18T03:01:07.936Z,95962.75
2018-08-18T03:03:37.121Z,95966.91
2018-08-18T03:06:14.757Z,95969.95
2018-08-18T03:08:43.991Z,95967.54
2018-08-18T03:11:13.072Z,95970.63
2018-08-18T03:13:42.289Z,95968.00
2018-08-18T03:16:12.267Z,95978.17
2018-08-18T03:18:48.906Z,95980.94
2018-08-18T03:21:18.385Z,95981.36
2018-08-18T03:23:59.400Z,95985.02
2018-08-18T03:26:36.852Z,95982.85
2018-08-18T03:29:05.995Z,95988.55
2018-08-18T03:31:35.189Z,95991.37
2018-08-18T03:34:04.603Z,95989.16
2018-08-18T03:36:37.633Z,95994.97
2018-08-18T03:39:08.301Z,96007.39
2018-08-18T03:41:37.385Z,95995.86
2018-08-18T03:44:06.483Z,95996.16
2018-08-18T03:46:35.671Z,95998.51
2018-08-18T03:49:04.917Z,95996.58
2018-08-18T03:51:39.296Z,96007.49
2018-08-18T03:54:08.399Z,96007.08
2018-08-18T03:56:37.524Z,96010.97
2018-08-18T03:59:06.709Z,96015.87
2018-08-18T04:01:55.589Z,96017.27
2018-08-18T04:04:26.012Z,96019.31
2018-08-18T04:06:56.436Z,96019.05
2018-08-18T04:09:27.809Z,96019.73
2018-08-18T04:12:00.044Z,96023.88
2018-08-18T04:14:44.572Z,96021.98
2018-08-18T04:17:25.374Z,96030.37
2018-08-18T04:19:54.527Z,96025.81
2018-08-18T04:22:23.809Z,96032.58
2018-08-18T04:24:53.037Z,96031.56
2018-08-18T04:27:42.158Z,96025.31
2018-08-18T04:30:14.200Z,96021.87
2018-08-18T04:32:54.128Z,96029.34
2018-08-18T04:35:24.551Z,96026.31
2018-08-18T04:37:54.596Z,96026.58
2018-08-18T04:40:24.324Z,96025.91
2018-08-18T04:42:55.524Z,96023.05
2018-08-18T04:45:24.782Z,96025.39
2018-08-18T04:47:53.892Z,96024.33
2018-08-18T04:50:23.355Z,96030.92
2018-08-18T04:52:53.160Z,96031.96
2018-08-18T04:55:22.346Z,96041.20
2018-08-18T04:57:51.642Z,96036.41
2018-08-18T05:00:20.749Z,96040.80
2018-08-18T05:02:56.892Z,96037.69
2018-08-18T05:05:28.434Z,96031.99
2018-08-18T05:07:58.655Z,96030.61
2018-08-18T05:10:28.773Z,96033.20
2018-08-18T05:12:57.958Z,96036.34
2018-08-18T05:15:27.059Z,96035.03
2018-08-18T05:17:56.251Z,96040.29
2018-08-18T05:20:26.633Z,96035.99
2018-08-18T05:22:57.803Z,96040.36
2018-08-18T05:25:37.029Z,96039.23
2018-08-18T05:28:06.155Z,96044.63
2018-08-18T05:30:35.368Z,96042.04
2018-08-18T05:33:04.582Z,96044.84
2018-08-18T05:35:33.755Z,96048.25
2018-08-18T05:38:02.987Z,96046.58
2018-08-18T05:40:33.307Z,96045.34
2018-08-18T05:43:02.953Z,96052.55
2018-08-18T05:45:33.333Z,96045.27
2018-08-18T05:48:02.443Z,96050.53
2018-08-18T05:50:31.777Z,96048.58
2018-08-18T05:53:16.149Z,96054.50
2018-08-18T05:55:45.681Z,96056.84
2018-08-18T05:58:14.859Z,96054.09
2018-08-18T06:00:43.984Z,96059.22
2018-08-18T06:03:16.966Z,96065.50
2018-08-18T06:05:46.068Z,96067.02
2018-08-18T06:08:15.511Z,96070.02
2018-08-18T06:10:44.647Z,96070.58
2018-08-18T06:13:19.180Z,96076.64
2018-08-18T06:16:06.135Z,96074.73
2018-08-18T06:18:36.637Z,96080.36
2018-08-18T06:21:06.353Z,96080.66
2018-08-18T06:23:36.227Z,96085.20
2018-08-18T06:26:05.421Z,96083.95
2018-08-18T06:28:34.950Z,96079.55
2018-08-18T06:31:04.278Z,96086.09
2018-08-18T06:33:33.754Z,96096.12
2018-08-18T06:36:03.277Z,96086.12
2018-08-18T06:38:32.405Z,96089.98
2018-08-18T06:41:02.736Z,96093.05
2018-08-18T06:43:33.046Z,96091.25
2018-08-18T06:46:02.612Z,96098.13
2018-08-18T06:48:33.197Z,96093.30
2018-08-18T06:51:02.477Z,96091.44
2018-08-18T06:53:36.931Z,96094.28
2018-08-18T06:56:06.630Z,96093.47
2018-08-18T06:58:35.992Z,96102.11
2018-08-18T07:01:05.527Z,96100.27
2018-08-18T07:03:44.834Z,96098.31
2018-08-18T07:06:15.321Z,96099.91
2018-08-18T07:08:58.957Z,96098.27
2018-08-18T07:11:28.217Z,96105.33
2018-08-18T07:13:57.335Z,96098.63
2018-08-18T07:16:26.535Z,96104.52
2018-08-18T07:18:55.815Z,96103.94
2018-08-18T07:21:24.961Z,96104.75
2018-08-18T07:23:54.065Z,96100.25
2018-08-18T07:26:23.217Z,96100.06
2018-08-18T07:28:52.521Z,96115.89
2018-08-18T07:31:21.597Z,96113.90
2018-08-18T07:33:50.680Z,96111.91
2018-08-18T07:36:19.817Z,96102.22
2018-08-18T07:38:49.037Z,96105.93
2018-08-18T07:41:18.169Z,96103.03
2018-08-18T07:43:47.381Z,96107.31
2018-08-18T07:46:16.527Z,96109.86
2018-08-18T07:48:45.595Z,96106.05
2018-08-18T07:51:14.784Z,96113.78
2018-08-18T07:53:43.904Z,96110.15
2018-08-18T07:56:13.076Z,96111.66
2018-08-18T07:58:42.175Z,96117.04
2018-08-18T08:01:11.354Z,96115.86
2018-08-18T08:03:40.430Z,96117.73
2018-08-18T08:06:09.670Z,96124.34
2018-08-18T08:08:44.217Z,96132.80
2018-08-18T08:11:13.436Z,96129.29
2018-08-18T08:13:42.574Z,96133.73
2018-08-18T08:16:11.788Z,96130.71
2018-08-18T08:18:40.888Z,96132.09
2018-08-18T08:21:10.156Z,96136.38
2018-08-18T08:23:39.354Z,96129.22
2018-08-18T08:26:08.696Z,96135.83
2018-08-18T08:28:37.893Z,96133.52
2018-08-18T08:31:07.105Z,96129.83
2018-08-18T08:33:38.208Z,96124.47
2018-08-18T08:36:13.243Z,96122.76
2018-08-18T08:38:56.575Z,96127.41
2018-08-18T08:41:27.235Z,96124.27
2018-08-18T08:43:56.424Z,96131.00
2018-08-18T08:46:25.607Z,96129.14
2018-08-18T08:48:57.466Z,96129.89
2018-08-18T08:51:27.002Z,96121.77
2018-08-18T08:53:57.778Z,96127.09
2018-08-18T08:56:35.104Z,96123.39
2018-08-18T08:59:04.530Z,96125.66
2018-08-18T09:01:33.983Z,96135.40
2018-08-18T09:04:03.850Z,96127.25
2018-08-18T09:06:33.469Z,96123.22
2018-08-18T09:09:02.565Z,96125.16
2018-08-18T09:11:31.761Z,96130.16
2018-08-18T09:14:05.027Z,96126.23
2018-08-18T09:16:34.478Z,96127.10
2018-08-18T09:19:03.582Z,96124.72
2018-08-18T09:21:38.125Z,96126.34
2018-08-18T09:24:07.243Z,96131.22
2018-08-18T09:26:41.662Z,96125.46
2018-08-18T09:29:11.193Z,96125.72
2018-08-18T09:31:40.684Z,96143.16
2018-08-18T09:34:09.851Z,96135.75
2018-08-18T09:36:39.089Z,96150.44
2018-08-18T09:39:11.161Z,96143.24
2018-08-18T09:41:40.285Z,96150.81
2018-08-18T09:44:15.123Z,96146.97
2018-08-18T09:46:45.196Z,96150.36
2018-08-18T09:49:14.436Z,96149.20
2018-08-18T09:51:43.540Z,96144.53
2018-08-18T09:54:12.721Z,96152.41
2018-08-18T09:56:42.304Z,96153.63
2018-08-18T09:59:11.448Z,96146.42
2018-08-18T10:01:40.656Z,96148.81
2018-08-18T10:04:09.840Z,96152.91
2018-08-18T10:06:39.054Z,96154.53
2018-08-18T10:09:09.008Z,96150.68
2018-08-18T10:11:38.854Z,96157.73
2018-08-18T10:14:08.188Z,96156.48
2018-08-18T10:16:37.936Z,96154.03
2018-08-18T10:19:07.075Z,96155.35
2018-08-18T10:21:36.195Z,96156.82
2018-08-18T10:24:05.454Z,96156.20
2018-08-18T10:26:34.589Z,96150.23
2018-08-18T10:29:15.509Z,96157.25
2018-08-18T10:31:49.605Z,96160.58
2018-08-18T10:34:19.735Z,96153.80
2018-08-18T10:36:54.152Z,96158.08
2018-08-18T10:39:23.268Z,96159.78
2018-08-18T10:42:00.413Z,96154.28
2018-08-18T10:44:29.517Z,96152.72
2018-08-18T10:47:11.342Z,96151.61
2018-08-18T10:49:51.888Z,96151.53
2018-08-18T10:52:33.661Z,96153.38
2018-08-18T10:55:04.409Z,96147.08
2018-08-18T10:57:45.814Z,96153.82
2018-08-18T11:00:16.113Z,96144.81
2018-08-18T11:02:47.515Z,96151.35
2018-08-18T11:05:17.280Z,96152.27
2018-08-18T11:07:54.047Z,96143.42
2018-08-18T11:10:24.376Z,96143.82
2018-08-18T11:12:53.513Z,96142.34
2018-08-18T11:15:22.692Z,96146.70
2018-08-18T11:17:52.049Z,96142.74
2018-08-18T11:20:25.283Z,96140.83
2018-08-18T11:23:10.663Z,96137.16
2018-08-18T11:25:57.062Z,96137.53
2018-08-18T11:28:26.301Z,96142.97
2018-08-18T11:30:55.745Z,96140.13
2018-08-18T11:33:41.583Z,96144.45
2018-08-18T11:36:12.452Z,96143.13
2018-08-18T11:38:41.692Z,96140.13
2018-08-18T11:41:10.855Z,96147.30
2018-08-18T11:43:45.634Z,96141.34
2018-08-18T11:46:14.864Z,96140.21
2018-08-18T11:48:44.029Z,96141.97
2018-08-18T11:51:13.143Z,96144.23
2018-08-18T11:53:54.486Z,96146.83
2018-08-18T11:56:23.702Z,96140.15
2018-08-18T11:59:04.600Z,96134.87
2018-08-18T12:01:34.858Z,96133.68
2018-08-18T12:04:03.923Z,96144.45
2018-08-18T12:06:33.032Z,96129.83
2018-08-18T12:09:02.135Z,96127.70
2018-08-18T12:11:31.270Z,96127.11
2018-08-18T12:14:00.487Z,96128.98
2018-08-18T12:16:29.563Z,96121.05
2018-08-18T12:18:58.725Z,96126.16
2018-08-18T12:21:32.056Z,96125.92
2018-08-18T12:24:01.170Z,96121.95
2018-08-18T12:26:30.340Z,96130.41
2018-08-18T12:28:59.569Z,96129.50
2018-08-18T12:31:29.204Z,96129.04
2018-08-18T12:33:58.429Z,96133.25
2018-08-18T12:36:27.669Z,96119.97
2018-08-18T12:38:58.225Z,96117.98
2018-08-18T12:41:27.468Z,96121.00
2018-08-18T12:43:57.982Z,96111.05
2018-08-18T12:46:35.737Z,96112.76
2018-08-18T12:49:05.930Z,96110.75
2018-08-18T12:51:35.139Z,96112.91
2018-08-18T12:54:04.649Z,96112.09
2018-08-18T12:56:33.749Z,96111.07
2018-08-18T12:59:02.808Z,96107.88
2018-08-18T13:01:45.470Z,96096.00
2018-08-18T13:04:16.040Z,96100.98
2018-08-18T13:06:47.465Z,96102.14
2018-08-18T13:09:18.115Z,96094.67
2018-08-18T13:11:48.633Z,96095.30
2018-08-18T13:14:19.204Z,96095.53
2018-08-18T13:16:48.589Z,96094.16
2018-08-18T13:19:19.511Z,96089.89
2018-08-18T13:21:48.648Z,96097.78
2018-08-18T13:24:17.839Z,96084.27
2018-08-18T13:26:46.991Z,96083.02
2018-08-18T13:29:16.029Z,96082.84
2018-08-18T13:31:45.483Z,96083.93
2018-08-18T13:34:16.075Z,96076.00
2018-08-18T13:36:46.381Z,96071.19
2018-08-18T13:39:16.660Z,96073.63
2018-08-18T13:41:46.593Z,96073.13
2018-08-18T13:44:23.056Z,96072.59
2018-08-18T13:46:52.241Z,96077.40
2018-08-18T13:49:23.815Z,96071.30
2018-08-18T13:51:52.901Z,96071.92
2018-08-18T13:54:22.032Z,96070.81
2018-08-18T13:56:51.143Z,96062.23
2018-08-18T13:59:39.234Z,96056.08
2018-08-18T14:02:09.200Z,96061.98
2018-08-18T14:04:40.311Z,96064.22
2018-08-18T14:07:09.832Z,96053.03
2018-08-18T14:09:41.489Z,96058.54
2018-08-18T14:12:15.469Z,96063.01
2018-08-18T14:14:45.443Z,96065.97
2018-08-18T14:17:15.276Z,96061.42
2018-08-18T14:19:44.611Z,96060.75
2018-08-18T14:22:14.471Z,96061.94
2018-08-18T14:24:43.547Z,96055.40
2018-08-18T14:27:14.025Z,96062.06
2018-08-18T14:29:43.388Z,96056.41
2018-08-18T14:32:17.841Z,96059.16
2018-08-18T14:34:55.275Z,96056.59
2018-08-18T14:37:24.353Z,96054.36
2018-08-18T14:39:53.533Z,96046.49
2018-08-18T14:42:22.647Z,96044.33
2018-08-18T14:44:52.607Z,96048.19
2018-08-18T14:47:21.797Z,96045.94
2018-08-18T14:49:57.066Z,96050.43
2018-08-18T14:52:26.159Z,96045.36
2018-08-18T14:54:55.296Z,96046.58
2018-08-18T14:57:24.359Z,96035.23
2018-08-18T14:59:53.429Z,96035.63
2018-08-18T15:02:22.576Z,96034.43
2018-08-18T15:04:51.765Z,96030.95
2018-08-18T15:07:20.993Z,96031.08
2018-08-18T15:09:50.136Z,96038.63
2018-08-18T15:12:19.365Z,96037.52
2018-08-18T15:14:48.577Z,96034.04
2018-08-18T15:17:17.659Z,96028.50
2018-08-18T15:19:46.883Z,96025.38
2018-08-18T15:22:15.963Z,96021.64
2018-08-18T15:24:45.169Z,96020.45
2018-08-18T15:27:14.565Z,96020.13
2018-08-18T15:29:43.853Z,96023.83
2018-08-18T15:32:12.956Z,96027.55
2018-08-18T15:34:42.106Z,96018.28
2018-08-18T15:37:11.168Z,96015.20
2018-08-18T15:39:40.252Z,96018.16
2018-08-18T15:42:09.339Z,96009.23
2018-08-18T15:44:48.573Z,96005.73
2018-08-18T15:47:17.793Z,96012.42
2018-08-18T15:49:46.960Z,96011.01
2018-08-18T15:52:16.195Z,96008.84
2018-08-18T15:54:45.298Z,96008.21
2018-08-18T15:57:14.377Z,96004.45
2018-08-18T15:59:43.444Z,96005.87
2018-08-18T16:02:12.692Z,96004.15
2018-08-18T16:04:41.848Z,95999.34
2018-08-18T16:07:11.043Z,96001.89
2018-08-18T16:09:40.229Z,96000.52
2018-08-18T16:12:09.333Z,95997.19
2018-08-18T16:14:38.419Z,96004.45
2018-08-18T16:17:07.573Z,96000.66
2018-08-18T16:19:37.647Z,96004.97
2018-08-18T16:22:07.519Z,95996.41
2018-08-18T16:24:42.354Z,95996.28
2018-08-18T16:27:11.500Z,95994.06
2018-08-18T16:29:41.075Z,95983.02
2018-08-18T16:32:20.487Z,95985.98
2018-08-18T16:34:57.240Z,95988.34
2018-08-18T16:37:27.456Z,95985.66
2018-08-18T16:39:57.059Z,95983.97
2018-08-18T16:42:26.230Z,95977.71
2018-08-18T16:44:55.430Z,95977.55
2018-08-18T16:47:24.517Z,95979.48
2018-08-18T16:49:53.616Z,95983.97
2018-08-18T16:52:22.830Z,95986.08
2018-08-18T16:54:51.952Z,95986.02
2018-08-18T16:57:21.198Z,95986.08
2018-08-18T16:59:50.419Z,95990.41
2018-08-18T17:02:31.064Z,95993.95
2018-08-18T17:05:00.171Z,95994.77
2018-08-18T17:07:29.299Z,95997.88
2018-08-18T17:09:58.464Z,95996.09
2018-08-18T17:12:29.599Z,95996.31
2018-08-18T17:14:58.754Z,95993.30
2018-08-18T17:17:27.962Z,96001.03
2018-08-18T17:19:57.066Z,96004.05
2018-08-18T17:22:26.186Z,96007.41
2018-08-18T17:24:55.277Z,96002.61
2018-08-18T17:27:25.248Z,96009.37
2018-08-18T17:29:54.308Z,96009.66
2018-08-18T17:32:26.071Z,96015.71
2018-08-18T17:34:55.292Z,96011.66
2018-08-18T17:37:24.458Z,96016.66
2018-08-18T17:39:53.656Z,96020.77
2018-08-18T17:42:22.766Z,96014.89
2018-08-18T17:44:51.845Z,96020.88
2018-08-18T17:47:20.976Z,96023.34
2018-08-18T17:49:57.039Z,96023.30
2018-08-18T17:52:26.968Z,96032.98
2018-08-18T17:55:11.661Z,96029.13
2018-08-18T17:57:40.812Z,96033.08
2018-08-18T18:00:14.135Z,96032.50
2018-08-18T18:02:48.675Z,96040.28
2018-08-18T18:05:20.212Z,96042.39
2018-08-18T18:07:56.837Z,96044.23
2018-08-18T18:10:28.212Z,96043.29
2018-08-18T18:12:57.417Z,96053.76
2018-08-18T18:15:39.605Z,96055.97
2018-08-18T18:18:10.564Z,96056.36
2018-08-18T18:20:40.146Z,96061.17
2018-08-18T18:23:10.924Z,96065.44
2018-08-18T18:25:40.042Z,96061.77
2018-08-18T18:28:09.197Z,96064.28
2018-08-18T18:30:38.408Z,96072.98
2018-08-18T18:33:08.472Z,96074.77
2018-08-18T18:35:37.626Z,96077.03
2018-08-18T18:38:07.192Z,96085.98
2018-08-18T18:40:38.445Z,96074.48
2018-08-18T18:43:07.847Z,96086.77
2018-08-18T18:45:37.012Z,96084.00
2018-08-18T18:48:07.337Z,96085.97
2018-08-18T18:50:36.431Z,96093.34
2018-08-18T18:53:05.573Z,96096.09
2018-08-18T18:55:41.221Z,96097.03
2018-08-18T18:58:14.449Z,96103.51
2018-08-18T19:00:54.266Z,96103.53
2018-08-18T19:03:23.444Z,96109.13
2018-08-18T19:05:52.569Z,96116.02
2018-08-18T19:08:22.485Z,96113.43
2018-08-18T19:10:51.552Z,96112.65
2018-08-18T19:13:20.685Z,96121.57
2018-08-18T19:15:49.887Z,96118.70
2018-08-18T19:18:19.078Z,96120.02
2018-08-18T19:20:48.265Z,96117.48
2018-08-18T19:23:18.467Z,96124.84
2018-08-18T19:25:48.968Z,96119.53
2018-08-18T19:28:19.413Z,96125.47
2018-08-18T19:30:48.642Z,96118.77
2018-08-18T19:33:18.309Z,96121.91
2018-08-18T19:35:51.620Z,96118.13
2018-08-18T19:38:21.746Z,96117.98
2018-08-18T19:40:52.725Z,96123.82
2018-08-18T19:43:24.004Z,96117.98
2018-08-18T19:45:53.693Z,96116.96
2018-08-18T19:48:24.243Z,96121.34
2018-08-18T19:51:05.776Z,96124.34
2018-08-18T19:53:35.918Z,96122.86
2018-08-18T19:56:08.508Z,96126.23
2018-08-18T19:58:37.545Z,96121.67
2018-08-18T20:01:06.874Z,96121.25
2018-08-18T20:03:36.001Z,96124.36
2018-08-18T20:06:09.327Z,96127.84
2018-08-18T20:08:38.554Z,96122.45
2018-08-18T20:11:07.690Z,96124.61
2018-08-18T20:13:36.815Z,96122.88
2018-08-18T20:16:06.166Z,96121.28
2018-08-18T20:18:35.392Z,96123.39
2018-08-18T20:21:04.491Z,96123.36
2018-08-18T20:23:33.665Z,96127.05
2018-08-18T20:26:02.788Z,96128.72
2018-08-18T20:28:31.943Z,96136.42
2018-08-18T20:31:01.108Z,96135.81
2018-08-18T20:33:30.345Z,96134.83
2018-08-18T20:35:59.465Z,96133.64
2018-08-18T20:38:32.836Z,96131.88
2018-08-18T20:41:01.924Z,96126.92
2018-08-18T20:43:31.119Z,96125.45
2018-08-18T20:46:00.237Z,96132.05
2018-08-18T20:48:29.493Z,96133.67
2018-08-18T20:50:58.613Z,96133.56
2018-08-18T20:53:27.949Z,96130.45
2018-08-18T20:55:59.203Z,96141.57
2018-08-18T20:58:28.856Z,96142.25
2018-08-18T21:00:58.068Z,96149.09
2018-08-18T21:03:45.362Z,96150.86
2018-08-18T21:06:15.276Z,96151.59
2018-08-18T21:08:44.460Z,96153.31
2018-08-18T21:11:13.748Z,96150.63
2018-08-18T21:13:43.157Z,96152.95
2018-08-18T21:16:12.288Z,96159.20
2018-08-18T21:18:41.480Z,96160.84
2018-08-18T21:21:33.479Z,96166.17
2018-08-18T21:24:02.599Z,96165.45
2018-08-18T21:26:31.788Z,96162.81
2018-08-18T21:29:00.901Z,96160.84
2018-08-18T21:31:33.869Z,96159.81
2018-08-18T21:34:04.196Z,96162.02
2018-08-18T21:36:33.576Z,96157.72
2018-08-18T21:39:06.462Z,96152.73
2018-08-18T21:41:37.504Z,96162.47
2018-08-18T21:44:08.041Z,96162.02
2018-08-18T21:46:38.557Z,96166.41
2018-08-18T21:49:07.841Z,96164.33
2018-08-18T21:51:37.011Z,96166.20
2018-08-18T21:54:06.233Z,96161.80
2018-08-18T21:56:36.079Z,96168.52
2018-08-18T21:59:06.531Z,96168.39
2018-08-18T22:01:36.103Z,96163.05
2018-08-18T22:04:05.613Z,96168.97
2018-08-18T22:06:34.727Z,96166.27
2018-08-18T22:09:15.488Z,96166.15
2018-08-18T22:11:44.729Z,96171.47
2018-08-18T22:14:15.105Z,96169.38
2018-08-18T22:16:50.405Z,96171.02
2018-08-18T22:19:20.859Z,96168.90
2018-08-18T22:21:50.040Z,96167.75
2018-08-18T22:24:19.357Z,96165.39
2018-08-18T22:26:48.838Z,96167.75
2018-08-18T22:29:17.976Z,96157.66
2018-08-18T22:31:47.139Z,96161.46
2018-08-18T22:34:16.325Z,96168.41
2018-08-18T22:36:45.504Z,96162.03
2018-08-18T22:39:14.681Z,96164.63
2018-08-18T22:41:44.303Z,96162.37
2018-08-18T22:44:13.417Z,96155.86
2018-08-18T22:46:42.625Z,96162.36
2018-08-18T22:49:11.806Z,96154.40
2018-08-18T22:51:41.001Z,96160.52
2018-08-18T22:54:10.101Z,96159.79
2018-08-18T22:56:39.308Z,96151.41
2018-08-18T22:59:08.941Z,96152.70
2018-08-18T23:01:38.931Z,96151.45
2018-08-18T23:04:23.572Z,96156.42
2018-08-18T23:06:52.749Z,96154.67
2018-08-18T23:09:21.864Z,96160.17
2018-08-18T23:11:51.007Z,96162.70
2018-08-18T23:14:20.131Z,96164.29
2018-08-18T23:16:49.249Z,96154.47
2018-08-18T23:19:18.448Z,96155.61
2018-08-18T23:21:47.621Z,96155.17
2018-08-18T23:24:26.160Z,96156.95
2018-08-18T23:26:55.289Z,96155.65
2018-08-18T23:29:24.456Z,96155.51
2018-08-18T23:31:53.800Z,96156.66
2018-08-18T23:34:23.263Z,96152.37
2018-08-18T23:36:52.820Z,96155.92
2018-08-18T23:39:21.974Z,96159.00
2018-08-18T23:42:23.791Z,96157.59
2018-08-18T23:44:52.883Z,96152.58
2018-08-18T23:47:23.020Z,96155.95
2018-08-18T23:49:52.568Z,96150.03
2018-08-18T23:52:21.764Z,96148.05
2018-08-18T23:54:50.949Z,96149.05
2018-08-18T23:57:20.124Z,96151.86
2018-08-18T23:59:50.046Z,96141.64
